sensor_id;sensor_type;location;lat;lon;timestamp;P1;durP1;ratioP1;P2;durP2;ratioP2
72941;SDS011;69665;55.822;37.330;2023-09-30T00:00:36;24.85;;;14.48;;
72941;SDS011;69665;55.822;37.330;2023-09-30T00:03:02;26.77;;;15.55;;
72941;SDS011;69665;55.822;37.330;2023-09-30T00:05:27;24.50;;;14.65;;
72941;SDS011;69665;55.822;37.330;2023-09-30T00:07:53;26.00;;;13.43;;
72941;SDS011;69665;55.822;37.330;2023-09-30T00:10:18;27.35;;;14.93;;
72941;SDS011;69665;55.822;37.330;2023-09-30T00:12:43;28.02;;;14.15;;
72941;SDS011;69665;55.822;37.330;2023-09-30T00:15:10;23.40;;;14.93;;
72941;SDS011;69665;55.822;37.330;2023-09-30T00:17:36;27.92;;;13.55;;
72941;SDS011;69665;55.822;37.330;2023-09-30T00:20:01;24.10;;;15.50;;
72941;SDS011;69665;55.822;37.330;2023-09-30T00:22:30;27.77;;;14.93;;
72941;SDS011;69665;55.822;37.330;2023-09-30T00:24:55;24.52;;;13.15;;
72941;SDS011;69665;55.822;37.330;2023-09-30T00:27:21;23.35;;;13.30;;
72941;SDS011;69665;55.822;37.330;2023-09-30T00:29:46;27.30;;;14.02;;
72941;SDS011;69665;55.822;37.330;2023-09-30T00:32:12;26.38;;;14.30;;
72941;SDS011;69665;55.822;37.330;2023-09-30T00:34:37;20.55;;;12.70;;
72941;SDS011;69665;55.822;37.330;2023-09-30T00:37:04;23.60;;;12.80;;
72941;SDS011;69665;55.822;37.330;2023-09-30T00:39:32;24.67;;;13.52;;
72941;SDS011;69665;55.822;37.330;2023-09-30T00:41:57;22.45;;;12.27;;
72941;SDS011;69665;55.822;37.330;2023-09-30T00:44:24;22.52;;;13.77;;
72941;SDS011;69665;55.822;37.330;2023-09-30T00:46:50;23.85;;;13.55;;
72941;SDS011;69665;55.822;37.330;2023-09-30T00:49:15;23.17;;;12.25;;
72941;SDS011;69665;55.822;37.330;2023-09-30T00:51:44;24.45;;;14.00;;
72941;SDS011;69665;55.822;37.330;2023-09-30T00:54:10;21.92;;;13.95;;
72941;SDS011;69665;55.822;37.330;2023-09-30T00:56:35;27.38;;;13.20;;
72941;SDS011;69665;55.822;37.330;2023-09-30T00:59:06;21.17;;;12.23;;
72941;SDS011;69665;55.822;37.330;2023-09-30T01:01:32;21.55;;;12.30;;
72941;SDS011;69665;55.822;37.330;2023-09-30T01:03:57;20.48;;;12.55;;
72941;SDS011;69665;55.822;37.330;2023-09-30T01:06:23;23.17;;;12.85;;
72941;SDS011;69665;55.822;37.330;2023-09-30T01:08:49;23.35;;;13.20;;
72941;SDS011;69665;55.822;37.330;2023-09-30T01:11:15;22.23;;;12.02;;
72941;SDS011;69665;55.822;37.330;2023-09-30T01:13:41;24.20;;;12.23;;
72941;SDS011;69665;55.822;37.330;2023-09-30T01:16:09;23.23;;;13.65;;
72941;SDS011;69665;55.822;37.330;2023-09-30T01:18:38;22.23;;;12.75;;
72941;SDS011;69665;55.822;37.330;2023-09-30T01:21:04;23.25;;;12.52;;
72941;SDS011;69665;55.822;37.330;2023-09-30T01:23:33;22.05;;;12.13;;
72941;SDS011;69665;55.822;37.330;2023-09-30T01:26:02;21.98;;;11.90;;
72941;SDS011;69665;55.822;37.330;2023-09-30T01:28:29;25.85;;;12.23;;
72941;SDS011;69665;55.822;37.330;2023-09-30T01:30:54;24.83;;;11.90;;
72941;SDS011;69665;55.822;37.330;2023-09-30T01:33:19;24.38;;;12.63;;
72941;SDS011;69665;55.822;37.330;2023-09-30T01:35:45;22.15;;;12.23;;
72941;SDS011;69665;55.822;37.330;2023-09-30T01:38:10;24.95;;;12.70;;
72941;SDS011;69665;55.822;37.330;2023-09-30T01:40:36;20.00;;;11.27;;
72941;SDS011;69665;55.822;37.330;2023-09-30T01:43:03;24.40;;;12.50;;
72941;SDS011;69665;55.822;37.330;2023-09-30T01:45:28;21.85;;;11.55;;
72941;SDS011;69665;55.822;37.330;2023-09-30T01:47:54;21.20;;;11.65;;
72941;SDS011;69665;55.822;37.330;2023-09-30T01:50:19;22.77;;;11.95;;
72941;SDS011;69665;55.822;37.330;2023-09-30T01:52:45;23.40;;;11.80;;
72941;SDS011;69665;55.822;37.330;2023-09-30T01:55:10;19.45;;;11.50;;
72941;SDS011;69665;55.822;37.330;2023-09-30T01:57:36;23.45;;;11.73;;
72941;SDS011;69665;55.822;37.330;2023-09-30T02:00:02;21.80;;;12.40;;
72941;SDS011;69665;55.822;37.330;2023-09-30T02:02:39;20.25;;;12.20;;
72941;SDS011;69665;55.822;37.330;2023-09-30T02:05:04;22.75;;;11.15;;
72941;SDS011;69665;55.822;37.330;2023-09-30T02:07:33;22.83;;;13.13;;
72941;SDS011;69665;55.822;37.330;2023-09-30T02:09:59;23.17;;;11.25;;
72941;SDS011;69665;55.822;37.330;2023-09-30T02:12:26;22.80;;;11.95;;
72941;SDS011;69665;55.822;37.330;2023-09-30T02:14:55;21.67;;;11.45;;
72941;SDS011;69665;55.822;37.330;2023-09-30T02:17:20;22.77;;;13.00;;
72941;SDS011;69665;55.822;37.330;2023-09-30T02:19:46;21.83;;;11.20;;
72941;SDS011;69665;55.822;37.330;2023-09-30T02:22:32;24.77;;;11.52;;
72941;SDS011;69665;55.822;37.330;2023-09-30T02:24:58;21.70;;;12.32;;
72941;SDS011;69665;55.822;37.330;2023-09-30T02:27:23;22.58;;;11.18;;
72941;SDS011;69665;55.822;37.330;2023-09-30T02:29:49;21.38;;;12.20;;
72941;SDS011;69665;55.822;37.330;2023-09-30T02:32:14;20.70;;;11.05;;
72941;SDS011;69665;55.822;37.330;2023-09-30T02:34:40;22.38;;;11.15;;
72941;SDS011;69665;55.822;37.330;2023-09-30T02:37:06;24.63;;;11.80;;
72941;SDS011;69665;55.822;37.330;2023-09-30T02:39:32;21.02;;;11.50;;
72941;SDS011;69665;55.822;37.330;2023-09-30T02:41:57;24.58;;;12.23;;
72941;SDS011;69665;55.822;37.330;2023-09-30T02:44:23;20.10;;;11.27;;
72941;SDS011;69665;55.822;37.330;2023-09-30T02:46:48;24.38;;;11.57;;
72941;SDS011;69665;55.822;37.330;2023-09-30T02:49:14;21.65;;;11.57;;
72941;SDS011;69665;55.822;37.330;2023-09-30T02:51:40;20.50;;;11.52;;
72941;SDS011;69665;55.822;37.330;2023-09-30T02:54:05;24.98;;;11.75;;
72941;SDS011;69665;55.822;37.330;2023-09-30T02:56:31;19.83;;;11.18;;
72941;SDS011;69665;55.822;37.330;2023-09-30T02:58:56;20.98;;;10.63;;
72941;SDS011;69665;55.822;37.330;2023-09-30T03:01:22;21.23;;;11.35;;
72941;SDS011;69665;55.822;37.330;2023-09-30T03:03:47;21.50;;;11.52;;
72941;SDS011;69665;55.822;37.330;2023-09-30T03:06:12;19.75;;;10.63;;
72941;SDS011;69665;55.822;37.330;2023-09-30T03:08:39;18.83;;;10.18;;
72941;SDS011;69665;55.822;37.330;2023-09-30T03:11:06;22.27;;;11.45;;
72941;SDS011;69665;55.822;37.330;2023-09-30T03:13:32;20.58;;;10.95;;
72941;SDS011;69665;55.822;37.330;2023-09-30T03:15:58;18.52;;;9.90;;
72941;SDS011;69665;55.822;37.330;2023-09-30T03:18:23;18.60;;;10.00;;
72941;SDS011;69665;55.822;37.330;2023-09-30T03:20:52;21.33;;;11.27;;
72941;SDS011;69665;55.822;37.330;2023-09-30T03:23:22;20.33;;;11.02;;
72941;SDS011;69665;55.822;37.330;2023-09-30T03:25:47;20.95;;;11.43;;
72941;SDS011;69665;55.822;37.330;2023-09-30T03:28:13;18.67;;;10.23;;
72941;SDS011;69665;55.822;37.330;2023-09-30T03:30:40;20.58;;;10.65;;
72941;SDS011;69665;55.822;37.330;2023-09-30T03:33:05;19.83;;;11.90;;
72941;SDS011;69665;55.822;37.330;2023-09-30T03:35:31;20.70;;;10.43;;
72941;SDS011;69665;55.822;37.330;2023-09-30T03:37:57;21.83;;;10.15;;
72941;SDS011;69665;55.822;37.330;2023-09-30T03:40:23;18.80;;;11.05;;
72941;SDS011;69665;55.822;37.330;2023-09-30T03:45:19;17.25;;;10.48;;
72941;SDS011;69665;55.822;37.330;2023-09-30T03:47:44;20.38;;;10.90;;
72941;SDS011;69665;55.822;37.330;2023-09-30T03:50:11;27.38;;;13.05;;
72941;SDS011;69665;55.822;37.330;2023-09-30T03:52:41;20.40;;;11.70;;
72941;SDS011;69665;55.822;37.330;2023-09-30T03:55:10;18.30;;;11.38;;
72941;SDS011;69665;55.822;37.330;2023-09-30T03:57:37;17.90;;;10.85;;
72941;SDS011;69665;55.822;37.330;2023-09-30T04:00:03;19.38;;;10.75;;
72941;SDS011;69665;55.822;37.330;2023-09-30T04:02:38;20.98;;;12.63;;
72941;SDS011;69665;55.822;37.330;2023-09-30T04:05:04;21.42;;;12.05;;
72941;SDS011;69665;55.822;37.330;2023-09-30T04:07:30;19.75;;;9.63;;
72941;SDS011;69665;55.822;37.330;2023-09-30T04:09:56;18.83;;;10.00;;
72941;SDS011;69665;55.822;37.330;2023-09-30T04:12:21;22.80;;;10.88;;
72941;SDS011;69665;55.822;37.330;2023-09-30T04:14:51;17.20;;;9.55;;
72941;SDS011;69665;55.822;37.330;2023-09-30T04:17:17;15.88;;;9.23;;
72941;SDS011;69665;55.822;37.330;2023-09-30T04:19:42;19.15;;;9.50;;
72941;SDS011;69665;55.822;37.330;2023-09-30T04:22:08;14.85;;;9.27;;
72941;SDS011;69665;55.822;37.330;2023-09-30T04:24:33;17.60;;;9.32;;
72941;SDS011;69665;55.822;37.330;2023-09-30T04:26:59;14.00;;;8.65;;
72941;SDS011;69665;55.822;37.330;2023-09-30T04:29:28;15.07;;;8.88;;
72941;SDS011;69665;55.822;37.330;2023-09-30T04:31:57;14.40;;;8.00;;
72941;SDS011;69665;55.822;37.330;2023-09-30T04:34:22;14.27;;;9.07;;
72941;SDS011;69665;55.822;37.330;2023-09-30T04:36:48;13.80;;;8.90;;
72941;SDS011;69665;55.822;37.330;2023-09-30T04:39:13;13.95;;;8.48;;
72941;SDS011;69665;55.822;37.330;2023-09-30T04:41:40;17.40;;;9.88;;
72941;SDS011;69665;55.822;37.330;2023-09-30T04:44:06;16.75;;;9.93;;
72941;SDS011;69665;55.822;37.330;2023-09-30T04:46:32;13.40;;;8.27;;
72941;SDS011;69665;55.822;37.330;2023-09-30T04:48:57;15.30;;;9.20;;
72941;SDS011;69665;55.822;37.330;2023-09-30T04:51:23;12.93;;;8.35;;
72941;SDS011;69665;55.822;37.330;2023-09-30T04:53:51;19.48;;;8.82;;
72941;SDS011;69665;55.822;37.330;2023-09-30T04:56:16;13.73;;;8.88;;
72941;SDS011;69665;55.822;37.330;2023-09-30T04:58:41;17.60;;;8.68;;
72941;SDS011;69665;55.822;37.330;2023-09-30T05:01:07;15.43;;;8.93;;
72941;SDS011;69665;55.822;37.330;2023-09-30T05:03:34;15.32;;;8.48;;
72941;SDS011;69665;55.822;37.330;2023-09-30T05:06:00;14.52;;;9.05;;
72941;SDS011;69665;55.822;37.330;2023-09-30T05:08:26;16.08;;;8.93;;
72941;SDS011;69665;55.822;37.330;2023-09-30T05:10:51;16.55;;;10.07;;
72941;SDS011;69665;55.822;37.330;2023-09-30T05:13:20;13.35;;;8.43;;
72941;SDS011;69665;55.822;37.330;2023-09-30T05:15:46;15.73;;;9.63;;
72941;SDS011;69665;55.822;37.330;2023-09-30T05:18:11;15.82;;;10.13;;
72941;SDS011;69665;55.822;37.330;2023-09-30T05:20:37;14.85;;;8.90;;
72941;SDS011;69665;55.822;37.330;2023-09-30T05:23:04;13.23;;;8.85;;
72941;SDS011;69665;55.822;37.330;2023-09-30T05:25:32;18.38;;;9.13;;
72941;SDS011;69665;55.822;37.330;2023-09-30T05:27:57;15.45;;;9.25;;
72941;SDS011;69665;55.822;37.330;2023-09-30T05:30:23;11.95;;;8.73;;
72941;SDS011;69665;55.822;37.330;2023-09-30T05:32:48;12.77;;;8.75;;
72941;SDS011;69665;55.822;37.330;2023-09-30T05:37:56;14.75;;;8.68;;
72941;SDS011;69665;55.822;37.330;2023-09-30T05:40:21;14.23;;;9.20;;
72941;SDS011;69665;55.822;37.330;2023-09-30T05:45:23;14.20;;;9.35;;
72941;SDS011;69665;55.822;37.330;2023-09-30T05:47:49;14.32;;;8.82;;
72941;SDS011;69665;55.822;37.330;2023-09-30T05:50:19;15.18;;;9.00;;
72941;SDS011;69665;55.822;37.330;2023-09-30T05:52:49;14.63;;;9.90;;
72941;SDS011;69665;55.822;37.330;2023-09-30T05:55:16;15.23;;;10.00;;
72941;SDS011;69665;55.822;37.330;2023-09-30T05:57:45;14.20;;;9.30;;
72941;SDS011;69665;55.822;37.330;2023-09-30T06:00:11;13.52;;;9.07;;
72941;SDS011;69665;55.822;37.330;2023-09-30T06:02:40;15.90;;;9.80;;
72941;SDS011;69665;55.822;37.330;2023-09-30T06:05:05;15.88;;;9.70;;
72941;SDS011;69665;55.822;37.330;2023-09-30T06:07:31;14.48;;;9.55;;
72941;SDS011;69665;55.822;37.330;2023-09-30T06:09:56;13.80;;;10.07;;
72941;SDS011;69665;55.822;37.330;2023-09-30T06:12:21;15.93;;;9.23;;
72941;SDS011;69665;55.822;37.330;2023-09-30T06:14:47;13.02;;;9.43;;
72941;SDS011;69665;55.822;37.330;2023-09-30T06:17:12;15.80;;;9.63;;
72941;SDS011;69665;55.822;37.330;2023-09-30T06:19:38;15.13;;;9.88;;
72941;SDS011;69665;55.822;37.330;2023-09-30T06:22:03;12.32;;;10.15;;
72941;SDS011;69665;55.822;37.330;2023-09-30T06:24:30;14.13;;;9.85;;
72941;SDS011;69665;55.822;37.330;2023-09-30T06:26:55;13.18;;;9.38;;
72941;SDS011;69665;55.822;37.330;2023-09-30T06:29:21;15.27;;;9.45;;
72941;SDS011;69665;55.822;37.330;2023-09-30T06:31:46;15.70;;;9.75;;
72941;SDS011;69665;55.822;37.330;2023-09-30T06:34:12;13.15;;;9.40;;
72941;SDS011;69665;55.822;37.330;2023-09-30T06:36:38;16.00;;;10.05;;
72941;SDS011;69665;55.822;37.330;2023-09-30T06:39:04;13.27;;;9.05;;
72941;SDS011;69665;55.822;37.330;2023-09-30T06:41:31;13.93;;;9.68;;
72941;SDS011;69665;55.822;37.330;2023-09-30T06:43:56;13.52;;;9.27;;
72941;SDS011;69665;55.822;37.330;2023-09-30T06:46:22;14.23;;;9.50;;
72941;SDS011;69665;55.822;37.330;2023-09-30T06:48:49;13.15;;;8.93;;
72941;SDS011;69665;55.822;37.330;2023-09-30T06:51:17;12.93;;;10.23;;
72941;SDS011;69665;55.822;37.330;2023-09-30T06:53:43;14.88;;;10.27;;
72941;SDS011;69665;55.822;37.330;2023-09-30T06:56:09;12.95;;;9.80;;
72941;SDS011;69665;55.822;37.330;2023-09-30T06:58:34;14.32;;;10.23;;
72941;SDS011;69665;55.822;37.330;2023-09-30T07:01:00;13.98;;;10.10;;
72941;SDS011;69665;55.822;37.330;2023-09-30T07:03:25;14.25;;;9.98;;
72941;SDS011;69665;55.822;37.330;2023-09-30T07:05:51;12.48;;;9.70;;
72941;SDS011;69665;55.822;37.330;2023-09-30T07:08:17;11.70;;;9.95;;
72941;SDS011;69665;55.822;37.330;2023-09-30T07:10:43;16.85;;;9.68;;
72941;SDS011;69665;55.822;37.330;2023-09-30T07:13:09;14.30;;;9.63;;
72941;SDS011;69665;55.822;37.330;2023-09-30T07:15:35;13.73;;;9.55;;
72941;SDS011;69665;55.822;37.330;2023-09-30T07:18:00;12.02;;;9.45;;
72941;SDS011;69665;55.822;37.330;2023-09-30T07:20:26;12.82;;;9.68;;
72941;SDS011;69665;55.822;37.330;2023-09-30T07:22:51;12.23;;;8.70;;
72941;SDS011;69665;55.822;37.330;2023-09-30T07:25:17;12.48;;;8.95;;
72941;SDS011;69665;55.822;37.330;2023-09-30T07:27:43;11.40;;;10.25;;
72941;SDS011;69665;55.822;37.330;2023-09-30T07:30:10;12.98;;;9.27;;
72941;SDS011;69665;55.822;37.330;2023-09-30T07:32:37;10.18;;;8.30;;
72941;SDS011;69665;55.822;37.330;2023-09-30T07:35:03;11.75;;;9.05;;
72941;SDS011;69665;55.822;37.330;2023-09-30T07:37:28;10.48;;;9.30;;
72941;SDS011;69665;55.822;37.330;2023-09-30T07:39:54;11.00;;;8.93;;
72941;SDS011;69665;55.822;37.330;2023-09-30T07:42:19;13.45;;;9.60;;
72941;SDS011;69665;55.822;37.330;2023-09-30T07:44:45;12.25;;;9.40;;
72941;SDS011;69665;55.822;37.330;2023-09-30T07:47:10;12.82;;;9.48;;
72941;SDS011;69665;55.822;37.330;2023-09-30T07:49:37;12.68;;;9.20;;
72941;SDS011;69665;55.822;37.330;2023-09-30T07:52:03;10.88;;;8.55;;
72941;SDS011;69665;55.822;37.330;2023-09-30T07:54:29;10.85;;;7.88;;
72941;SDS011;69665;55.822;37.330;2023-09-30T07:56:57;15.20;;;9.45;;
72941;SDS011;69665;55.822;37.330;2023-09-30T07:59:24;12.38;;;8.43;;
72941;SDS011;69665;55.822;37.330;2023-09-30T08:01:50;12.60;;;8.38;;
72941;SDS011;69665;55.822;37.330;2023-09-30T08:04:17;12.60;;;8.52;;
72941;SDS011;69665;55.822;37.330;2023-09-30T08:06:43;11.95;;;8.10;;
72941;SDS011;69665;55.822;37.330;2023-09-30T08:09:08;12.23;;;7.50;;
72941;SDS011;69665;55.822;37.330;2023-09-30T08:14:05;14.88;;;8.32;;
72941;SDS011;69665;55.822;37.330;2023-09-30T08:16:35;12.70;;;7.03;;
72941;SDS011;69665;55.822;37.330;2023-09-30T08:19:02;12.38;;;7.10;;
72941;SDS011;69665;55.822;37.330;2023-09-30T08:21:28;10.32;;;7.75;;
72941;SDS011;69665;55.822;37.330;2023-09-30T08:23:54;12.93;;;7.78;;
72941;SDS011;69665;55.822;37.330;2023-09-30T08:26:22;12.25;;;7.28;;
72941;SDS011;69665;55.822;37.330;2023-09-30T08:28:48;9.80;;;7.20;;
72941;SDS011;69665;55.822;37.330;2023-09-30T08:31:14;11.25;;;7.35;;
72941;SDS011;69665;55.822;37.330;2023-09-30T08:33:39;10.70;;;6.53;;
72941;SDS011;69665;55.822;37.330;2023-09-30T08:36:06;13.45;;;7.18;;
72941;SDS011;69665;55.822;37.330;2023-09-30T08:38:36;13.57;;;7.13;;
72941;SDS011;69665;55.822;37.330;2023-09-30T08:41:02;9.57;;;7.05;;
72941;SDS011;69665;55.822;37.330;2023-09-30T08:43:27;11.27;;;7.45;;
72941;SDS011;69665;55.822;37.330;2023-09-30T08:45:56;13.00;;;6.78;;
72941;SDS011;69665;55.822;37.330;2023-09-30T08:48:23;10.77;;;6.70;;
72941;SDS011;69665;55.822;37.330;2023-09-30T08:50:48;12.82;;;7.15;;
72941;SDS011;69665;55.822;37.330;2023-09-30T08:53:16;10.35;;;7.38;;
72941;SDS011;69665;55.822;37.330;2023-09-30T08:55:43;13.70;;;7.28;;
72941;SDS011;69665;55.822;37.330;2023-09-30T08:58:10;12.60;;;7.55;;
72941;SDS011;69665;55.822;37.330;2023-09-30T09:00:35;13.38;;;7.55;;
72941;SDS011;69665;55.822;37.330;2023-09-30T09:03:08;11.90;;;7.32;;
72941;SDS011;69665;55.822;37.330;2023-09-30T09:05:34;13.75;;;7.45;;
72941;SDS011;69665;55.822;37.330;2023-09-30T09:07:59;12.90;;;7.43;;
72941;SDS011;69665;55.822;37.330;2023-09-30T09:10:25;11.13;;;7.15;;
72941;SDS011;69665;55.822;37.330;2023-09-30T09:12:54;11.48;;;7.07;;
72941;SDS011;69665;55.822;37.330;2023-09-30T09:15:23;11.55;;;7.57;;
72941;SDS011;69665;55.822;37.330;2023-09-30T09:17:48;10.55;;;7.35;;
72941;SDS011;69665;55.822;37.330;2023-09-30T09:20:17;10.57;;;7.35;;
72941;SDS011;69665;55.822;37.330;2023-09-30T09:22:46;14.65;;;7.90;;
72941;SDS011;69665;55.822;37.330;2023-09-30T09:25:12;11.95;;;7.45;;
72941;SDS011;69665;55.822;37.330;2023-09-30T09:27:37;13.15;;;7.18;;
72941;SDS011;69665;55.822;37.330;2023-09-30T09:30:16;10.18;;;7.60;;
72941;SDS011;69665;55.822;37.330;2023-09-30T09:33:02;11.98;;;6.80;;
72941;SDS011;69665;55.822;37.330;2023-09-30T09:35:30;12.90;;;7.28;;
72941;SDS011;69665;55.822;37.330;2023-09-30T09:37:58;10.75;;;7.50;;
72941;SDS011;69665;55.822;37.330;2023-09-30T09:40:29;11.43;;;7.50;;
72941;SDS011;69665;55.822;37.330;2023-09-30T09:42:55;12.68;;;7.07;;
72941;SDS011;69665;55.822;37.330;2023-09-30T09:45:21;12.32;;;7.85;;
72941;SDS011;69665;55.822;37.330;2023-09-30T09:47:51;19.83;;;8.65;;
72941;SDS011;69665;55.822;37.330;2023-09-30T09:50:18;15.77;;;8.82;;
72941;SDS011;69665;55.822;37.330;2023-09-30T09:52:46;18.55;;;10.38;;
72941;SDS011;69665;55.822;37.330;2023-09-30T09:55:12;13.50;;;9.18;;
72941;SDS011;69665;55.822;37.330;2023-09-30T09:57:40;16.85;;;9.60;;
72941;SDS011;69665;55.822;37.330;2023-09-30T10:00:06;13.45;;;8.55;;
72941;SDS011;69665;55.822;37.330;2023-09-30T10:02:38;12.32;;;7.60;;
72941;SDS011;69665;55.822;37.330;2023-09-30T10:05:04;12.38;;;8.25;;
72941;SDS011;69665;55.822;37.330;2023-09-30T10:07:33;14.15;;;8.65;;
72941;SDS011;69665;55.822;37.330;2023-09-30T10:10:00;14.40;;;9.18;;
72941;SDS011;69665;55.822;37.330;2023-09-30T10:12:35;11.63;;;8.25;;
72941;SDS011;69665;55.822;37.330;2023-09-30T10:15:01;15.27;;;8.35;;
72941;SDS011;69665;55.822;37.330;2023-09-30T10:20:11;13.70;;;8.30;;
72941;SDS011;69665;55.822;37.330;2023-09-30T10:22:36;15.45;;;8.70;;
72941;SDS011;69665;55.822;37.330;2023-09-30T10:25:02;14.18;;;7.85;;
72941;SDS011;69665;55.822;37.330;2023-09-30T10:27:47;15.73;;;8.60;;
72941;SDS011;69665;55.822;37.330;2023-09-30T10:30:13;12.55;;;8.07;;
72941;SDS011;69665;55.822;37.330;2023-09-30T10:35:17;18.92;;;8.55;;
72941;SDS011;69665;55.822;37.330;2023-09-30T10:37:43;15.80;;;8.40;;
72941;SDS011;69665;55.822;37.330;2023-09-30T10:40:09;10.93;;;7.80;;
72941;SDS011;69665;55.822;37.330;2023-09-30T10:42:50;12.10;;;7.45;;
72941;SDS011;69665;55.822;37.330;2023-09-30T10:48:31;11.88;;;8.02;;
72941;SDS011;69665;55.822;37.330;2023-09-30T10:50:49;11.65;;;7.80;;
72941;SDS011;69665;55.822;37.330;2023-09-30T10:53:15;12.90;;;7.93;;
72941;SDS011;69665;55.822;37.330;2023-09-30T10:55:42;11.65;;;7.97;;
72941;SDS011;69665;55.822;37.330;2023-09-30T10:58:09;12.15;;;7.63;;
72941;SDS011;69665;55.822;37.330;2023-09-30T11:00:34;12.30;;;7.30;;
72941;SDS011;69665;55.822;37.330;2023-09-30T11:03:00;14.02;;;7.75;;
72941;SDS011;69665;55.822;37.330;2023-09-30T11:05:25;12.65;;;7.15;;
72941;SDS011;69665;55.822;37.330;2023-09-30T11:07:51;15.13;;;7.65;;
72941;SDS011;69665;55.822;37.330;2023-09-30T11:10:17;13.25;;;6.82;;
72941;SDS011;69665;55.822;37.330;2023-09-30T11:12:57;10.65;;;7.05;;
72941;SDS011;69665;55.822;37.330;2023-09-30T11:15:23;10.75;;;7.00;;
72941;SDS011;69665;55.822;37.330;2023-09-30T11:17:49;13.00;;;7.28;;
72941;SDS011;69665;55.822;37.330;2023-09-30T11:20:18;11.43;;;6.55;;
72941;SDS011;69665;55.822;37.330;2023-09-30T11:22:44;12.10;;;7.00;;
72941;SDS011;69665;55.822;37.330;2023-09-30T11:25:17;10.98;;;7.30;;
72941;SDS011;69665;55.822;37.330;2023-09-30T11:27:45;13.07;;;7.05;;
72941;SDS011;69665;55.822;37.330;2023-09-30T11:30:11;14.30;;;7.10;;
72941;SDS011;69665;55.822;37.330;2023-09-30T11:32:37;13.25;;;6.70;;
72941;SDS011;69665;55.822;37.330;2023-09-30T11:35:25;14.35;;;6.90;;
72941;SDS011;69665;55.822;37.330;2023-09-30T11:37:50;15.15;;;7.05;;
72941;SDS011;69665;55.822;37.330;2023-09-30T11:40:17;14.63;;;7.60;;
72941;SDS011;69665;55.822;37.330;2023-09-30T11:45:29;13.85;;;7.72;;
72941;SDS011;69665;55.822;37.330;2023-09-30T11:47:55;18.27;;;7.82;;
72941;SDS011;69665;55.822;37.330;2023-09-30T11:50:23;13.13;;;7.70;;
72941;SDS011;69665;55.822;37.330;2023-09-30T11:52:49;12.88;;;7.05;;
72941;SDS011;69665;55.822;37.330;2023-09-30T11:55:15;14.30;;;7.45;;
72941;SDS011;69665;55.822;37.330;2023-09-30T11:57:41;11.20;;;6.68;;
72941;SDS011;69665;55.822;37.330;2023-09-30T12:00:07;13.20;;;7.22;;
72941;SDS011;69665;55.822;37.330;2023-09-30T12:02:39;12.80;;;6.88;;
72941;SDS011;69665;55.822;37.330;2023-09-30T12:05:06;15.25;;;6.82;;
72941;SDS011;69665;55.822;37.330;2023-09-30T12:07:37;12.07;;;7.43;;
72941;SDS011;69665;55.822;37.330;2023-09-30T12:10:03;13.93;;;7.88;;
72941;SDS011;69665;55.822;37.330;2023-09-30T12:12:29;15.13;;;7.40;;
72941;SDS011;69665;55.822;37.330;2023-09-30T12:14:56;13.80;;;6.75;;
72941;SDS011;69665;55.822;37.330;2023-09-30T12:17:22;12.52;;;7.03;;
72941;SDS011;69665;55.822;37.330;2023-09-30T12:19:47;14.68;;;8.43;;
72941;SDS011;69665;55.822;37.330;2023-09-30T12:22:13;17.13;;;7.45;;
72941;SDS011;69665;55.822;37.330;2023-09-30T12:24:39;12.30;;;7.55;;
72941;SDS011;69665;55.822;37.330;2023-09-30T12:27:05;15.60;;;7.00;;
72941;SDS011;69665;55.822;37.330;2023-09-30T12:29:31;12.50;;;6.95;;
72941;SDS011;69665;55.822;37.330;2023-09-30T12:31:57;12.30;;;7.30;;
72941;SDS011;69665;55.822;37.330;2023-09-30T12:34:23;15.18;;;7.60;;
72941;SDS011;69665;55.822;37.330;2023-09-30T12:36:50;12.63;;;7.68;;
72941;SDS011;69665;55.822;37.330;2023-09-30T12:39:16;12.38;;;7.90;;
72941;SDS011;69665;55.822;37.330;2023-09-30T12:41:42;16.30;;;9.70;;
72941;SDS011;69665;55.822;37.330;2023-09-30T12:44:08;15.05;;;8.10;;
72941;SDS011;69665;55.822;37.330;2023-09-30T12:46:34;11.65;;;8.60;;
72941;SDS011;69665;55.822;37.330;2023-09-30T12:49:03;14.15;;;6.95;;
72941;SDS011;69665;55.822;37.330;2023-09-30T12:51:28;12.07;;;7.50;;
72941;SDS011;69665;55.822;37.330;2023-09-30T12:53:54;12.35;;;8.13;;
72941;SDS011;69665;55.822;37.330;2023-09-30T12:56:19;13.52;;;8.20;;
72941;SDS011;69665;55.822;37.330;2023-09-30T12:58:45;13.30;;;7.03;;
72941;SDS011;69665;55.822;37.330;2023-09-30T13:01:11;14.05;;;7.63;;
72941;SDS011;69665;55.822;37.330;2023-09-30T13:03:37;12.40;;;7.55;;
72941;SDS011;69665;55.822;37.330;2023-09-30T13:06:02;14.15;;;7.07;;
72941;SDS011;69665;55.822;37.330;2023-09-30T13:08:29;12.27;;;7.53;;
72941;SDS011;69665;55.822;37.330;2023-09-30T13:11:02;11.52;;;7.78;;
72941;SDS011;69665;55.822;37.330;2023-09-30T13:13:28;13.65;;;8.13;;
72941;SDS011;69665;55.822;37.330;2023-09-30T13:15:57;12.10;;;7.10;;
72941;SDS011;69665;55.822;37.330;2023-09-30T13:18:22;16.75;;;8.75;;
72941;SDS011;69665;55.822;37.330;2023-09-30T13:20:48;14.25;;;8.23;;
72941;SDS011;69665;55.822;37.330;2023-09-30T13:23:13;14.82;;;7.72;;
72941;SDS011;69665;55.822;37.330;2023-09-30T13:25:39;14.15;;;8.90;;
72941;SDS011;69665;55.822;37.330;2023-09-30T13:28:04;13.65;;;8.45;;
72941;SDS011;69665;55.822;37.330;2023-09-30T13:30:30;13.57;;;8.38;;
72941;SDS011;69665;55.822;37.330;2023-09-30T13:32:55;13.15;;;8.30;;
72941;SDS011;69665;55.822;37.330;2023-09-30T13:35:21;17.40;;;8.98;;
72941;SDS011;69665;55.822;37.330;2023-09-30T13:37:46;14.77;;;8.52;;
72941;SDS011;69665;55.822;37.330;2023-09-30T13:40:12;15.43;;;7.95;;
72941;SDS011;69665;55.822;37.330;2023-09-30T13:42:38;13.60;;;8.68;;
72941;SDS011;69665;55.822;37.330;2023-09-30T13:45:04;17.00;;;9.32;;
72941;SDS011;69665;55.822;37.330;2023-09-30T13:47:31;16.73;;;8.43;;
72941;SDS011;69665;55.822;37.330;2023-09-30T13:49:57;13.07;;;8.15;;
72941;SDS011;69665;55.822;37.330;2023-09-30T13:52:22;12.45;;;7.22;;
72941;SDS011;69665;55.822;37.330;2023-09-30T13:54:48;13.23;;;7.88;;
72941;SDS011;69665;55.822;37.330;2023-09-30T13:57:13;18.02;;;9.15;;
72941;SDS011;69665;55.822;37.330;2023-09-30T13:59:39;15.40;;;7.43;;
72941;SDS011;69665;55.822;37.330;2023-09-30T14:02:05;12.73;;;7.65;;
72941;SDS011;69665;55.822;37.330;2023-09-30T14:04:30;18.15;;;8.77;;
72941;SDS011;69665;55.822;37.330;2023-09-30T14:07:01;15.20;;;8.35;;
72941;SDS011;69665;55.822;37.330;2023-09-30T14:09:27;17.95;;;8.23;;
72941;SDS011;69665;55.822;37.330;2023-09-30T14:11:53;14.75;;;8.52;;
72941;SDS011;69665;55.822;37.330;2023-09-30T14:14:19;17.02;;;8.80;;
72941;SDS011;69665;55.822;37.330;2023-09-30T14:16:44;16.00;;;9.18;;
72941;SDS011;69665;55.822;37.330;2023-09-30T14:19:09;18.60;;;9.20;;
72941;SDS011;69665;55.822;37.330;2023-09-30T14:21:35;17.30;;;9.63;;
72941;SDS011;69665;55.822;37.330;2023-09-30T14:24:00;13.45;;;8.77;;
72941;SDS011;69665;55.822;37.330;2023-09-30T14:26:27;19.75;;;9.00;;
72941;SDS011;69665;55.822;37.330;2023-09-30T14:28:53;15.25;;;9.05;;
72941;SDS011;69665;55.822;37.330;2023-09-30T14:31:18;17.05;;;9.48;;
72941;SDS011;69665;55.822;37.330;2023-09-30T14:33:44;15.77;;;8.98;;
72941;SDS011;69665;55.822;37.330;2023-09-30T14:36:09;18.95;;;9.15;;